Terminal Aerodrome Forecast
Issued by NWS

Home | Current Version | Previous Version | Text Only | Print | Product List | Glossary On
Versions: 1 2 3 4 5 6 7 8 9 10 11 12 13 14
000
FTUS46 KSEW 200800 AAA
TAFOLM
TAF AMD
KOLM 200816Z 2008/2106 20008KT P6SM SCT035
     FM201000 20006KT P6SM SCT012 BKN030
      TEMPO 2012/2016 OVC012
     FM201600 22006KT P6SM OVC012
      TEMPO 2017/2020 BKN025
     FM202000 20006KT P6SM BKN030
     FM202200 20006KT P6SM SCT040=

USA.gov is the U.S. government's official web portal to all federal, state and local government web resources and services.